sensor_id;sensor_type;location;lat;lon;timestamp;pressure;altitude;pressure_sealevel;temperature;humidity
75063;BME280;63981;51.052;13.754;2023-04-15T00:00:06;99272.84;;;7.05;97.49
75063;BME280;63981;51.052;13.754;2023-04-15T00:02:38;99271.50;;;7.12;97.46
75063;BME280;63981;51.052;13.754;2023-04-15T00:05:04;99274.44;;;7.07;96.55
75063;BME280;63981;51.052;13.754;2023-04-15T00:07:30;99215.91;;;6.69;97.43
75063;BME280;63981;51.052;13.754;2023-04-15T00:09:56;99278.19;;;7.03;96.78
75063;BME280;63981;51.052;13.754;2023-04-15T00:12:23;99267.94;;;7.26;98.19
75063;BME280;63981;51.052;13.754;2023-04-15T00:14:49;99240.31;;;6.82;97.24
75063;BME280;63981;51.052;13.754;2023-04-15T00:17:16;99265.31;;;7.13;96.93
75063;BME280;63981;51.052;13.754;2023-04-15T00:19:42;99267.91;;;7.13;97.79
75063;BME280;63981;51.052;13.754;2023-04-15T00:22:09;99263.94;;;7.07;96.94
75063;BME280;63981;51.052;13.754;2023-04-15T00:24:34;99268.13;;;7.10;96.94
75063;BME280;63981;51.052;13.754;2023-04-15T00:27:00;99248.53;;;6.90;97.15
75063;BME280;63981;51.052;13.754;2023-04-15T00:29:26;99258.91;;;7.04;97.38
75063;BME280;63981;51.052;13.754;2023-04-15T00:31:52;99238.53;;;6.83;97.71
75063;BME280;63981;51.052;13.754;2023-04-15T00:34:19;99268.75;;;7.01;97.50
75063;BME280;63981;51.052;13.754;2023-04-15T00:36:44;99209.00;;;6.80;97.84
75063;BME280;63981;51.052;13.754;2023-04-15T00:39:11;99257.31;;;7.02;97.65
75063;BME280;63981;51.052;13.754;2023-04-15T00:41:36;99178.69;;;6.76;97.49
75063;BME280;63981;51.052;13.754;2023-04-15T00:44:06;99254.41;;;7.19;97.90
75063;BME280;63981;51.052;13.754;2023-04-15T00:46:34;99247.78;;;7.14;97.15
75063;BME280;63981;51.052;13.754;2023-04-15T00:49:02;99254.41;;;7.06;97.69
75063;BME280;63981;51.052;13.754;2023-04-15T00:51:28;99245.72;;;7.06;97.81
75063;BME280;63981;51.052;13.754;2023-04-15T00:53:55;99247.41;;;7.20;97.88
75063;BME280;63981;51.052;13.754;2023-04-15T00:56:22;99233.22;;;6.97;97.38
75063;BME280;63981;51.052;13.754;2023-04-15T00:58:50;99250.63;;;7.10;98.20
75063;BME280;63981;51.052;13.754;2023-04-15T01:01:20;99250.81;;;6.95;96.96
75063;BME280;63981;51.052;13.754;2023-04-15T01:03:50;99249.88;;;6.96;97.45
75063;BME280;63981;51.052;13.754;2023-04-15T01:06:16;99241.72;;;7.00;97.52
75063;BME280;63981;51.052;13.754;2023-04-15T01:08:43;99237.00;;;7.05;97.56
75063;BME280;63981;51.052;13.754;2023-04-15T01:11:13;99242.53;;;7.01;97.73
75063;BME280;63981;51.052;13.754;2023-04-15T01:13:40;99240.56;;;6.92;96.82
75063;BME280;63981;51.052;13.754;2023-04-15T01:16:07;99237.84;;;6.93;97.42
75063;BME280;63981;51.052;13.754;2023-04-15T01:18:34;99173.44;;;6.64;97.98
75063;BME280;63981;51.052;13.754;2023-04-15T01:21:00;99228.50;;;7.02;98.10
75063;BME280;63981;51.052;13.754;2023-04-15T01:23:30;99230.81;;;7.06;97.64
75063;BME280;63981;51.052;13.754;2023-04-15T01:25:56;99236.47;;;7.00;97.41
75063;BME280;63981;51.052;13.754;2023-04-15T01:28:22;99230.19;;;7.16;97.49
75063;BME280;63981;51.052;13.754;2023-04-15T01:30:48;99220.63;;;7.02;97.81
75063;BME280;63981;51.052;13.754;2023-04-15T01:33:14;99197.59;;;7.07;98.16
75063;BME280;63981;51.052;13.754;2023-04-15T01:35:59;99201.69;;;6.98;97.66
75063;BME280;63981;51.052;13.754;2023-04-15T01:38:25;99216.88;;;7.06;98.12
75063;BME280;63981;51.052;13.754;2023-04-15T01:40:51;99225.59;;;7.19;97.75
75063;BME280;63981;51.052;13.754;2023-04-15T01:43:18;99166.88;;;6.84;97.99
75063;BME280;63981;51.052;13.754;2023-04-15T01:45:45;99174.00;;;6.82;97.48
75063;BME280;63981;51.052;13.754;2023-04-15T01:48:12;99223.25;;;7.02;98.56
75063;BME280;63981;51.052;13.754;2023-04-15T01:50:39;99196.03;;;6.92;97.92
75063;BME280;63981;51.052;13.754;2023-04-15T01:53:06;99211.44;;;7.09;98.43
75063;BME280;63981;51.052;13.754;2023-04-15T01:55:34;99179.03;;;6.97;98.37
75063;BME280;63981;51.052;13.754;2023-04-15T01:58:01;99204.72;;;6.92;97.66
75063;BME280;63981;51.052;13.754;2023-04-15T02:00:28;99205.25;;;6.97;97.80
75063;BME280;63981;51.052;13.754;2023-04-15T02:02:56;99200.72;;;6.99;97.91
75063;BME280;63981;51.052;13.754;2023-04-15T02:05:25;99200.22;;;7.07;98.19
75063;BME280;63981;51.052;13.754;2023-04-15T02:07:53;99204.19;;;7.13;97.78
75063;BME280;63981;51.052;13.754;2023-04-15T02:10:20;99200.44;;;7.04;97.95
75063;BME280;63981;51.052;13.754;2023-04-15T02:12:47;99194.66;;;7.12;97.99
75063;BME280;63981;51.052;13.754;2023-04-15T02:15:14;99198.22;;;6.98;97.95
75063;BME280;63981;51.052;13.754;2023-04-15T02:17:42;99193.31;;;6.93;97.84
75063;BME280;63981;51.052;13.754;2023-04-15T02:20:11;99197.03;;;6.89;98.10
75063;BME280;63981;51.052;13.754;2023-04-15T02:22:38;99196.75;;;7.06;98.37
75063;BME280;63981;51.052;13.754;2023-04-15T02:25:05;99196.34;;;7.13;98.44
75063;BME280;63981;51.052;13.754;2023-04-15T02:27:34;99192.97;;;7.10;97.91
75063;BME280;63981;51.052;13.754;2023-04-15T02:30:02;99153.91;;;6.95;98.62
75063;BME280;63981;51.052;13.754;2023-04-15T02:32:29;99185.75;;;7.14;98.39
75063;BME280;63981;51.052;13.754;2023-04-15T02:35:01;99181.53;;;6.86;98.15
75063;BME280;63981;51.052;13.754;2023-04-15T02:37:28;99182.59;;;7.09;98.16
75063;BME280;63981;51.052;13.754;2023-04-15T02:39:58;99188.28;;;6.90;98.27
75063;BME280;63981;51.052;13.754;2023-04-15T02:42:25;99189.97;;;7.04;97.85
75063;BME280;63981;51.052;13.754;2023-04-15T02:44:55;99186.16;;;6.95;97.60
75063;BME280;63981;51.052;13.754;2023-04-15T02:47:23;99190.97;;;7.01;98.94
75063;BME280;63981;51.052;13.754;2023-04-15T02:49:51;99196.22;;;7.01;98.22
75063;BME280;63981;51.052;13.754;2023-04-15T02:52:18;99201.16;;;7.19;98.14
75063;BME280;63981;51.052;13.754;2023-04-15T02:54:45;99176.41;;;6.85;99.13
75063;BME280;63981;51.052;13.754;2023-04-15T02:57:12;99172.13;;;6.96;98.94
75063;BME280;63981;51.052;13.754;2023-04-15T02:59:39;99142.81;;;6.91;98.76
75063;BME280;63981;51.052;13.754;2023-04-15T03:02:06;99164.88;;;7.00;98.78
75063;BME280;63981;51.052;13.754;2023-04-15T03:04:34;99192.16;;;7.10;98.92
75063;BME280;63981;51.052;13.754;2023-04-15T03:07:01;99191.09;;;7.13;98.23
75063;BME280;63981;51.052;13.754;2023-04-15T03:09:28;99154.94;;;7.05;98.57
75063;BME280;63981;51.052;13.754;2023-04-15T03:11:56;99177.38;;;7.22;98.52
75063;BME280;63981;51.052;13.754;2023-04-15T03:14:23;99179.88;;;7.10;98.39
75063;BME280;63981;51.052;13.754;2023-04-15T03:16:51;99178.41;;;7.06;98.80
75063;BME280;63981;51.052;13.754;2023-04-15T03:19:18;99152.72;;;6.86;98.70
75063;BME280;63981;51.052;13.754;2023-04-15T03:21:45;99176.22;;;7.13;98.29
75063;BME280;63981;51.052;13.754;2023-04-15T03:24:13;99092.19;;;6.53;98.17
75063;BME280;63981;51.052;13.754;2023-04-15T03:26:40;99138.06;;;6.84;98.88
75063;BME280;63981;51.052;13.754;2023-04-15T03:29:13;99173.28;;;7.05;99.07
75063;BME280;63981;51.052;13.754;2023-04-15T03:31:41;99172.25;;;7.07;98.85
75063;BME280;63981;51.052;13.754;2023-04-15T03:34:08;99166.78;;;7.23;98.44
75063;BME280;63981;51.052;13.754;2023-04-15T03:36:36;99163.31;;;7.23;98.79
75063;BME280;63981;51.052;13.754;2023-04-15T03:39:03;99167.38;;;7.27;98.44
75063;BME280;63981;51.052;13.754;2023-04-15T03:41:30;99166.75;;;7.36;98.92
75063;BME280;63981;51.052;13.754;2023-04-15T03:43:56;99161.50;;;7.49;98.71
75063;BME280;63981;51.052;13.754;2023-04-15T03:46:23;99154.09;;;7.17;98.55
75063;BME280;63981;51.052;13.754;2023-04-15T03:48:51;99151.66;;;7.27;98.66
75063;BME280;63981;51.052;13.754;2023-04-15T03:51:18;99155.66;;;7.20;98.71
75063;BME280;63981;51.052;13.754;2023-04-15T03:53:45;99145.91;;;7.22;98.82
75063;BME280;63981;51.052;13.754;2023-04-15T03:56:12;99115.22;;;6.86;99.04
75063;BME280;63981;51.052;13.754;2023-04-15T03:58:38;99142.84;;;7.28;98.48
75063;BME280;63981;51.052;13.754;2023-04-15T04:01:06;99093.88;;;6.92;98.89
75063;BME280;63981;51.052;13.754;2023-04-15T04:03:33;99150.22;;;7.23;98.15
75063;BME280;63981;51.052;13.754;2023-04-15T04:06:01;99132.50;;;7.14;98.31
75063;BME280;63981;51.052;13.754;2023-04-15T04:08:28;99104.63;;;7.00;98.67
75063;BME280;63981;51.052;13.754;2023-04-15T04:10:55;99163.75;;;7.17;98.45
75063;BME280;63981;51.052;13.754;2023-04-15T04:13:21;99138.28;;;6.80;98.87
75063;BME280;63981;51.052;13.754;2023-04-15T04:15:48;99170.56;;;7.19;98.40
75063;BME280;63981;51.052;13.754;2023-04-15T04:18:16;99155.34;;;7.24;98.63
75063;BME280;63981;51.052;13.754;2023-04-15T04:20:43;99084.34;;;6.78;98.77
75063;BME280;63981;51.052;13.754;2023-04-15T04:23:10;99164.03;;;7.25;98.90
75063;BME280;63981;51.052;13.754;2023-04-15T04:25:37;99158.19;;;7.21;98.28
75063;BME280;63981;51.052;13.754;2023-04-15T04:28:04;99116.47;;;7.18;98.37
75063;BME280;63981;51.052;13.754;2023-04-15T04:30:31;99152.31;;;7.18;98.62
75063;BME280;63981;51.052;13.754;2023-04-15T04:32:58;99151.13;;;7.34;98.90
75063;BME280;63981;51.052;13.754;2023-04-15T04:35:25;99167.28;;;7.28;98.27
75063;BME280;63981;51.052;13.754;2023-04-15T04:37:53;99154.91;;;7.43;98.49
75063;BME280;63981;51.052;13.754;2023-04-15T04:40:20;99132.19;;;7.18;98.13
75063;BME280;63981;51.052;13.754;2023-04-15T04:42:46;99111.13;;;7.20;98.20
75063;BME280;63981;51.052;13.754;2023-04-15T04:45:13;99124.84;;;7.23;98.89
75063;BME280;63981;51.052;13.754;2023-04-15T04:47:40;99171.22;;;7.59;98.77
75063;BME280;63981;51.052;13.754;2023-04-15T04:50:07;99145.69;;;7.25;98.76
75063;BME280;63981;51.052;13.754;2023-04-15T04:52:35;99129.16;;;6.99;97.36
75063;BME280;63981;51.052;13.754;2023-04-15T04:55:02;99175.78;;;7.45;98.50
75063;BME280;63981;51.052;13.754;2023-04-15T04:57:29;99183.59;;;7.70;99.16
75063;BME280;63981;51.052;13.754;2023-04-15T04:59:56;99154.47;;;7.36;98.83
75063;BME280;63981;51.052;13.754;2023-04-15T05:02:23;99189.09;;;7.29;98.37
75063;BME280;63981;51.052;13.754;2023-04-15T05:04:52;99192.13;;;7.35;98.36
75063;BME280;63981;51.052;13.754;2023-04-15T05:07:20;99153.78;;;6.96;98.17
75063;BME280;63981;51.052;13.754;2023-04-15T05:09:47;99190.88;;;7.28;98.80
75063;BME280;63981;51.052;13.754;2023-04-15T05:12:14;99177.97;;;7.38;98.75
75063;BME280;63981;51.052;13.754;2023-04-15T05:14:41;99180.56;;;7.51;99.45
75063;BME280;63981;51.052;13.754;2023-04-15T05:17:08;99192.34;;;7.45;98.46
75063;BME280;63981;51.052;13.754;2023-04-15T05:19:34;99194.00;;;7.46;98.61
75063;BME280;63981;51.052;13.754;2023-04-15T05:22:01;99185.41;;;7.44;98.19
75063;BME280;63981;51.052;13.754;2023-04-15T05:24:29;99196.44;;;7.36;98.58
75063;BME280;63981;51.052;13.754;2023-04-15T05:26:55;99191.41;;;7.33;98.82
75063;BME280;63981;51.052;13.754;2023-04-15T05:29:23;99139.41;;;7.15;98.80
75063;BME280;63981;51.052;13.754;2023-04-15T05:31:50;99196.41;;;7.49;99.39
75063;BME280;63981;51.052;13.754;2023-04-15T05:34:16;99158.91;;;7.23;99.00
75063;BME280;63981;51.052;13.754;2023-04-15T05:36:43;99194.84;;;7.47;99.20
75063;BME280;63981;51.052;13.754;2023-04-15T05:39:11;99168.97;;;7.29;98.62
75063;BME280;63981;51.052;13.754;2023-04-15T05:41:38;99198.09;;;7.50;99.08
75063;BME280;63981;51.052;13.754;2023-04-15T05:44:04;99205.53;;;7.56;99.27
75063;BME280;63981;51.052;13.754;2023-04-15T05:46:31;99202.50;;;7.50;98.68
75063;BME280;63981;51.052;13.754;2023-04-15T05:48:58;99174.41;;;7.39;99.81
75063;BME280;63981;51.052;13.754;2023-04-15T05:51:25;99186.56;;;7.27;99.10
75063;BME280;63981;51.052;13.754;2023-04-15T05:53:53;99212.59;;;7.30;98.33
75063;BME280;63981;51.052;13.754;2023-04-15T05:56:19;99223.09;;;7.30;98.53
75063;BME280;63981;51.052;13.754;2023-04-15T05:58:47;99222.44;;;7.14;98.98
75063;BME280;63981;51.052;13.754;2023-04-15T06:01:13;99206.41;;;7.06;98.54
75063;BME280;63981;51.052;13.754;2023-04-15T06:03:41;99144.03;;;6.60;98.48
75063;BME280;63981;51.052;13.754;2023-04-15T06:06:09;99177.69;;;6.79;97.89
75063;BME280;63981;51.052;13.754;2023-04-15T06:08:37;99236.28;;;6.91;98.14
75063;BME280;63981;51.052;13.754;2023-04-15T06:11:04;99230.50;;;6.98;98.17
75063;BME280;63981;51.052;13.754;2023-04-15T06:13:31;99230.81;;;6.94;98.60
75063;BME280;63981;51.052;13.754;2023-04-15T06:15:58;99231.13;;;7.02;98.22
75063;BME280;63981;51.052;13.754;2023-04-15T06:18:25;99239.81;;;7.02;98.14
75063;BME280;63981;51.052;13.754;2023-04-15T06:20:52;99238.56;;;6.95;98.42
75063;BME280;63981;51.052;13.754;2023-04-15T06:23:19;99237.03;;;7.18;98.30
75063;BME280;63981;51.052;13.754;2023-04-15T06:25:46;99236.25;;;7.29;98.36
75063;BME280;63981;51.052;13.754;2023-04-15T06:28:13;99207.03;;;7.22;98.76
75063;BME280;63981;51.052;13.754;2023-04-15T06:30:40;99233.41;;;7.70;99.27
75063;BME280;63981;51.052;13.754;2023-04-15T06:33:07;99237.78;;;7.95;98.81
75063;BME280;63981;51.052;13.754;2023-04-15T06:35:35;99190.25;;;6.87;97.81
75063;BME280;63981;51.052;13.754;2023-04-15T06:38:02;99238.03;;;7.16;98.20
75063;BME280;63981;51.052;13.754;2023-04-15T06:40:29;99259.41;;;6.97;97.78
75063;BME280;63981;51.052;13.754;2023-04-15T06:42:55;99253.75;;;7.03;98.17
75063;BME280;63981;51.052;13.754;2023-04-15T06:45:22;99244.34;;;7.13;97.42
75063;BME280;63981;51.052;13.754;2023-04-15T06:47:49;99256.00;;;7.22;97.89
75063;BME280;63981;51.052;13.754;2023-04-15T06:50:16;99253.16;;;7.25;97.89
75063;BME280;63981;51.052;13.754;2023-04-15T06:52:43;99254.81;;;7.13;97.07
75063;BME280;63981;51.052;13.754;2023-04-15T06:55:10;99264.25;;;7.28;97.18
75063;BME280;63981;51.052;13.754;2023-04-15T06:57:38;99259.34;;;7.36;97.32
75063;BME280;63981;51.052;13.754;2023-04-15T07:00:05;99262.59;;;7.53;96.59
75063;BME280;63981;51.052;13.754;2023-04-15T07:02:33;99264.47;;;7.63;97.80
75063;BME280;63981;51.052;13.754;2023-04-15T07:05:00;99256.56;;;7.89;97.27
75063;BME280;63981;51.052;13.754;2023-04-15T07:07:28;99266.22;;;8.25;96.99
75063;BME280;63981;51.052;13.754;2023-04-15T07:09:55;99270.81;;;7.97;96.51
75063;BME280;63981;51.052;13.754;2023-04-15T07:12:22;99270.88;;;7.47;96.00
75063;BME280;63981;51.052;13.754;2023-04-15T07:14:50;99228.50;;;7.02;95.74
75063;BME280;63981;51.052;13.754;2023-04-15T07:17:17;99273.06;;;7.53;96.34
75063;BME280;63981;51.052;13.754;2023-04-15T07:19:44;99282.72;;;7.52;96.08
75063;BME280;63981;51.052;13.754;2023-04-15T07:22:12;99202.13;;;7.18;96.33
75063;BME280;63981;51.052;13.754;2023-04-15T07:24:38;99294.47;;;7.59;96.75
75063;BME280;63981;51.052;13.754;2023-04-15T07:27:05;99289.13;;;7.48;96.37
75063;BME280;63981;51.052;13.754;2023-04-15T07:29:33;99293.09;;;7.54;94.76
75063;BME280;63981;51.052;13.754;2023-04-15T07:32:00;99289.34;;;7.71;95.08
75063;BME280;63981;51.052;13.754;2023-04-15T07:34:27;99293.75;;;7.83;95.21
75063;BME280;63981;51.052;13.754;2023-04-15T07:36:54;99297.19;;;7.83;95.07
75063;BME280;63981;51.052;13.754;2023-04-15T07:39:21;99289.38;;;8.07;94.88
75063;BME280;63981;51.052;13.754;2023-04-15T07:41:49;99294.94;;;8.03;94.13
75063;BME280;63981;51.052;13.754;2023-04-15T07:44:15;99298.50;;;8.14;94.59
75063;BME280;63981;51.052;13.754;2023-04-15T07:46:42;99302.16;;;8.24;94.44
75063;BME280;63981;51.052;13.754;2023-04-15T07:49:09;99306.88;;;8.19;94.52
75063;BME280;63981;51.052;13.754;2023-04-15T07:51:36;99286.16;;;8.27;94.11
75063;BME280;63981;51.052;13.754;2023-04-15T07:54:04;99310.06;;;8.72;93.30
75063;BME280;63981;51.052;13.754;2023-04-15T07:56:31;99302.22;;;8.48;93.11
75063;BME280;63981;51.052;13.754;2023-04-15T07:58:58;99309.22;;;8.72;92.08
75063;BME280;63981;51.052;13.754;2023-04-15T08:01:27;99263.38;;;9.00;93.63
75063;BME280;63981;51.052;13.754;2023-04-15T08:03:54;99316.28;;;8.95;90.66
75063;BME280;63981;51.052;13.754;2023-04-15T08:06:21;99280.25;;;8.84;90.61
75063;BME280;63981;51.052;13.754;2023-04-15T08:08:48;99252.31;;;8.83;91.29
75063;BME280;63981;51.052;13.754;2023-04-15T08:11:15;99320.47;;;9.33;90.99
75063;BME280;63981;51.052;13.754;2023-04-15T08:13:42;99318.25;;;9.62;90.82
75063;BME280;63981;51.052;13.754;2023-04-15T08:16:15;99332.00;;;9.19;90.09
75063;BME280;63981;51.052;13.754;2023-04-15T08:18:43;99338.44;;;9.39;91.87
75063;BME280;63981;51.052;13.754;2023-04-15T08:21:10;99329.75;;;10.17;92.59
75063;BME280;63981;51.052;13.754;2023-04-15T08:23:37;99331.47;;;10.29;89.58
75063;BME280;63981;51.052;13.754;2023-04-15T08:26:05;99322.69;;;10.28;90.10
75063;BME280;63981;51.052;13.754;2023-04-15T08:28:32;99324.06;;;10.66;90.96
75063;BME280;63981;51.052;13.754;2023-04-15T08:30:59;99276.97;;;9.62;88.48
75063;BME280;63981;51.052;13.754;2023-04-15T08:33:26;99342.44;;;10.00;91.26
75063;BME280;63981;51.052;13.754;2023-04-15T08:35:54;99338.00;;;10.12;90.33
75063;BME280;63981;51.052;13.754;2023-04-15T08:38:21;99341.91;;;9.62;88.11
75063;BME280;63981;51.052;13.754;2023-04-15T08:40:48;99336.69;;;9.15;87.54
75063;BME280;63981;51.052;13.754;2023-04-15T08:43:23;99271.00;;;8.92;89.36
75063;BME280;63981;51.052;13.754;2023-04-15T08:45:54;99330.72;;;9.82;90.61
75063;BME280;63981;51.052;13.754;2023-04-15T08:48:21;99343.53;;;10.09;89.09
75063;BME280;63981;51.052;13.754;2023-04-15T08:50:50;99344.94;;;10.02;89.80
75063;BME280;63981;51.052;13.754;2023-04-15T08:53:17;99348.88;;;9.74;88.42
75063;BME280;63981;51.052;13.754;2023-04-15T08:55:46;99348.78;;;9.87;89.93
75063;BME280;63981;51.052;13.754;2023-04-15T08:58:18;99345.91;;;9.32;88.05
75063;BME280;63981;51.052;13.754;2023-04-15T09:00:45;99359.09;;;9.43;88.39
75063;BME280;63981;51.052;13.754;2023-04-15T09:03:13;99366.09;;;9.21;89.08
75063;BME280;63981;51.052;13.754;2023-04-15T09:05:41;99338.91;;;8.85;89.39
75063;BME280;63981;51.052;13.754;2023-04-15T09:08:08;99368.28;;;8.42;87.74
75063;BME280;63981;51.052;13.754;2023-04-15T09:10:36;99326.63;;;8.38;88.59
75063;BME280;63981;51.052;13.754;2023-04-15T09:13:07;99297.88;;;8.11;88.02
75063;BME280;63981;51.052;13.754;2023-04-15T09:15:37;99342.25;;;8.26;88.77
75063;BME280;63981;51.052;13.754;2023-04-15T09:18:04;99348.09;;;8.79;90.55
75063;BME280;63981;51.052;13.754;2023-04-15T09:20:41;99380.75;;;8.64;88.72
75063;BME280;63981;51.052;13.754;2023-04-15T09:23:12;99337.91;;;8.51;88.82
75063;BME280;63981;51.052;13.754;2023-04-15T09:25:40;99388.41;;;9.15;88.27
75063;BME280;63981;51.052;13.754;2023-04-15T09:28:11;99384.00;;;9.15;87.15
75063;BME280;63981;51.052;13.754;2023-04-15T09:30:37;99374.09;;;9.19;87.72
75063;BME280;63981;51.052;13.754;2023-04-15T09:33:04;99383.22;;;9.26;86.52
75063;BME280;63981;51.052;13.754;2023-04-15T09:35:34;99347.31;;;9.14;87.81
75063;BME280;63981;51.052;13.754;2023-04-15T09:38:07;99389.66;;;8.74;84.72
75063;BME280;63981;51.052;13.754;2023-04-15T09:40:40;99400.34;;;8.35;84.44
75063;BME280;63981;51.052;13.754;2023-04-15T09:43:09;99412.53;;;8.23;83.97
75063;BME280;63981;51.052;13.754;2023-04-15T09:45:46;99371.06;;;7.90;83.84
75063;BME280;63981;51.052;13.754;2023-04-15T09:48:16;99418.63;;;8.11;83.54
75063;BME280;63981;51.052;13.754;2023-04-15T09:50:43;99402.63;;;8.26;85.19
75063;BME280;63981;51.052;13.754;2023-04-15T09:53:18;99414.94;;;8.26;83.98
75063;BME280;63981;51.052;13.754;2023-04-15T09:55:54;99404.56;;;8.37;83.72
75063;BME280;63981;51.052;13.754;2023-04-15T09:58:26;99379.91;;;8.64;83.54
75063;BME280;63981;51.052;13.754;2023-04-15T10:00:56;99422.81;;;8.51;82.30
75063;BME280;63981;51.052;13.754;2023-04-15T10:03:27;99425.75;;;8.60;82.91
75063;BME280;63981;51.052;13.754;2023-04-15T10:05:56;99418.88;;;8.57;82.29
75063;BME280;63981;51.052;13.754;2023-04-15T10:08:26;99402.03;;;8.36;82.05
75063;BME280;63981;51.052;13.754;2023-04-15T10:10:54;99437.72;;;8.51;82.01
75063;BME280;63981;51.052;13.754;2023-04-15T10:13:23;99431.75;;;8.36;82.87
75063;BME280;63981;51.052;13.754;2023-04-15T10:16:11;99438.03;;;8.34;83.08
75063;BME280;63981;51.052;13.754;2023-04-15T10:18:45;99437.50;;;8.16;82.58
75063;BME280;63981;51.052;13.754;2023-04-15T10:21:13;99431.66;;;8.38;82.38
75063;BME280;63981;51.052;13.754;2023-04-15T10:23:44;99403.69;;;8.24;81.82
75063;BME280;63981;51.052;13.754;2023-04-15T10:26:12;99435.78;;;8.66;81.56
75063;BME280;63981;51.052;13.754;2023-04-15T10:28:40;99405.28;;;8.39;81.45
75063;BME280;63981;51.052;13.754;2023-04-15T10:31:10;99387.97;;;8.11;81.68
75063;BME280;63981;51.052;13.754;2023-04-15T10:33:38;99420.91;;;8.41;81.32
75063;BME280;63981;51.052;13.754;2023-04-15T10:36:05;99444.88;;;8.49;81.56
75063;BME280;63981;51.052;13.754;2023-04-15T10:38:42;99437.81;;;8.62;82.95
75063;BME280;63981;51.052;13.754;2023-04-15T10:41:11;99437.28;;;8.44;80.75
75063;BME280;63981;51.052;13.754;2023-04-15T10:43:39;99440.13;;;8.54;79.56
75063;BME280;63981;51.052;13.754;2023-04-15T10:46:11;99392.09;;;8.65;80.11
75063;BME280;63981;51.052;13.754;2023-04-15T10:48:38;99445.78;;;9.45;81.64
75063;BME280;63981;51.052;13.754;2023-04-15T10:51:05;99446.84;;;8.95;80.11
75063;BME280;63981;51.052;13.754;2023-04-15T10:53:31;99447.09;;;9.15;79.50
75063;BME280;63981;51.052;13.754;2023-04-15T10:55:59;99432.00;;;9.30;78.20
75063;BME280;63981;51.052;13.754;2023-04-15T10:58:40;99452.78;;;9.09;77.83
75063;BME280;63981;51.052;13.754;2023-04-15T11:01:07;99412.19;;;8.90;77.63
75063;BME280;63981;51.052;13.754;2023-04-15T11:03:39;99451.44;;;9.87;77.43
75063;BME280;63981;51.052;13.754;2023-04-15T11:06:08;99437.59;;;9.02;77.40
75063;BME280;63981;51.052;13.754;2023-04-15T11:08:55;99404.63;;;8.85;77.37
75063;BME280;63981;51.052;13.754;2023-04-15T11:11:22;99432.94;;;9.05;77.16
75063;BME280;63981;51.052;13.754;2023-04-15T11:13:50;99466.72;;;9.23;76.51
75063;BME280;63981;51.052;13.754;2023-04-15T11:16:19;99473.66;;;9.48;78.06
75063;BME280;63981;51.052;13.754;2023-04-15T11:18:54;99481.72;;;9.57;76.42
75063;BME280;63981;51.052;13.754;2023-04-15T11:21:24;99456.44;;;9.20;76.37
75063;BME280;63981;51.052;13.754;2023-04-15T11:23:52;99474.19;;;9.53;77.49
75063;BME280;63981;51.052;13.754;2023-04-15T11:26:24;99458.41;;;9.53;75.97
75063;BME280;63981;51.052;13.754;2023-04-15T11:28:52;99480.41;;;9.63;75.99
75063;BME280;63981;51.052;13.754;2023-04-15T11:31:20;99476.94;;;9.62;77.44
75063;BME280;63981;51.052;13.754;2023-04-15T11:33:56;99486.63;;;9.51;74.61
75063;BME280;63981;51.052;13.754;2023-04-15T11:36:25;99491.88;;;9.51;75.91
75063;BME280;63981;51.052;13.754;2023-04-15T11:38:57;99449.28;;;9.81;76.38
75063;BME280;63981;51.052;13.754;2023-04-15T11:41:24;99482.38;;;9.72;75.45
75063;BME280;63981;51.052;13.754;2023-04-15T11:43:52;99497.41;;;9.94;74.73
75063;BME280;63981;51.052;13.754;2023-04-15T11:46:19;99498.19;;;10.18;76.42
75063;BME280;63981;51.052;13.754;2023-04-15T11:48:47;99491.78;;;9.63;74.03
75063;BME280;63981;51.052;13.754;2023-04-15T11:51:14;99440.41;;;9.46;73.98
75063;BME280;63981;51.052;13.754;2023-04-15T11:53:48;99502.16;;;10.24;75.54
75063;BME280;63981;51.052;13.754;2023-04-15T11:56:20;99504.19;;;9.85;73.43
75063;BME280;63981;51.052;13.754;2023-04-15T11:58:47;99504.00;;;9.64;72.50
75063;BME280;63981;51.052;13.754;2023-04-15T12:01:15;99510.13;;;9.65;73.68
75063;BME280;63981;51.052;13.754;2023-04-15T12:03:45;99496.25;;;9.74;75.24
75063;BME280;63981;51.052;13.754;2023-04-15T12:06:19;99471.59;;;9.40;74.33
75063;BME280;63981;51.052;13.754;2023-04-15T12:13:57;99530.19;;;9.42;73.47
75063;BME280;63981;51.052;13.754;2023-04-15T12:16:24;99532.00;;;9.41;73.69
75063;BME280;63981;51.052;13.754;2023-04-15T12:18:51;99533.22;;;9.25;73.32
75063;BME280;63981;51.052;13.754;2023-04-15T12:21:21;99489.31;;;9.49;75.54
75063;BME280;63981;51.052;13.754;2023-04-15T12:23:52;99535.66;;;9.87;73.45
75063;BME280;63981;51.052;13.754;2023-04-15T12:26:25;99539.38;;;10.19;72.58
75063;BME280;63981;51.052;13.754;2023-04-15T12:28:59;99546.03;;;10.47;71.80
75063;BME280;63981;51.052;13.754;2023-04-15T12:31:25;99543.78;;;10.65;71.25
75063;BME280;63981;51.052;13.754;2023-04-15T12:33:57;99497.09;;;9.74;70.82
75063;BME280;63981;51.052;13.754;2023-04-15T12:36:23;99530.50;;;10.20;72.98
75063;BME280;63981;51.052;13.754;2023-04-15T12:38:49;99550.28;;;9.91;71.71
75063;BME280;63981;51.052;13.754;2023-04-15T12:41:15;99532.44;;;9.83;72.21
75063;BME280;63981;51.052;13.754;2023-04-15T12:43:40;99544.19;;;9.90;71.84
75063;BME280;63981;51.052;13.754;2023-04-15T12:46:06;99563.41;;;9.80;71.52
75063;BME280;63981;51.052;13.754;2023-04-15T12:48:33;99560.38;;;9.73;71.25
75063;BME280;63981;51.052;13.754;2023-04-15T12:50:59;99560.66;;;9.81;72.62
75063;BME280;63981;51.052;13.754;2023-04-15T12:53:25;99569.44;;;9.69;71.94
75063;BME280;63981;51.052;13.754;2023-04-15T12:55:51;99533.50;;;9.33;71.88
75063;BME280;63981;51.052;13.754;2023-04-15T12:58:17;99568.44;;;9.83;71.91
75063;BME280;63981;51.052;13.754;2023-04-15T13:00:42;99531.94;;;9.54;71.00
75063;BME280;63981;51.052;13.754;2023-04-15T13:03:09;99576.47;;;10.16;71.81
75063;BME280;63981;51.052;13.754;2023-04-15T13:05:34;99510.91;;;9.54;70.04
75063;BME280;63981;51.052;13.754;2023-04-15T13:08:02;99588.69;;;10.17;70.72